sensor_id;sensor_type;location;lat;lon;timestamp;pressure;altitude;pressure_sealevel;temperature
69530;BMP180;56727;47.188;8.840;2023-02-04T00:03:02;98540.40;;;13.44
69530;BMP180;56727;47.188;8.840;2023-02-04T00:05:29;98537.20;;;13.50
69530;BMP180;56727;47.188;8.840;2023-02-04T00:07:56;98530.60;;;13.50
69530;BMP180;56727;47.188;8.840;2023-02-04T00:10:23;98524.40;;;13.50
69530;BMP180;56727;47.188;8.840;2023-02-04T00:12:49;98526.00;;;13.46
69530;BMP180;56727;47.188;8.840;2023-02-04T00:15:16;98534.00;;;13.44
69530;BMP180;56727;47.188;8.840;2023-02-04T00:17:42;98535.20;;;13.42
69530;BMP180;56727;47.188;8.840;2023-02-04T00:20:11;98528.00;;;13.42
69530;BMP180;56727;47.188;8.840;2023-02-04T00:22:38;98539.80;;;13.40
69530;BMP180;56727;47.188;8.840;2023-02-04T00:25:06;98531.60;;;13.54
69530;BMP180;56727;47.188;8.840;2023-02-04T00:27:33;98544.00;;;13.60
69530;BMP180;56727;47.188;8.840;2023-02-04T00:29:59;98547.00;;;13.60
69530;BMP180;56727;47.188;8.840;2023-02-04T00:32:26;98537.40;;;13.58
69530;BMP180;56727;47.188;8.840;2023-02-04T00:34:52;98547.40;;;13.52
69530;BMP180;56727;47.188;8.840;2023-02-04T00:37:19;98551.80;;;13.46
69530;BMP180;56727;47.188;8.840;2023-02-04T00:39:45;98554.20;;;13.42
69530;BMP180;56727;47.188;8.840;2023-02-04T00:42:12;98556.00;;;13.40
69530;BMP180;56727;47.188;8.840;2023-02-04T00:44:38;98559.40;;;13.34
69530;BMP180;56727;47.188;8.840;2023-02-04T00:47:05;98562.20;;;13.32
69530;BMP180;56727;47.188;8.840;2023-02-04T00:49:34;98557.20;;;13.30
69530;BMP180;56727;47.188;8.840;2023-02-04T00:52:01;98556.00;;;13.30
69530;BMP180;56727;47.188;8.840;2023-02-04T00:54:27;98551.80;;;13.30
69530;BMP180;56727;47.188;8.840;2023-02-04T00:56:54;98539.00;;;13.30
69530;BMP180;56727;47.188;8.840;2023-02-04T00:59:21;98540.00;;;13.34
69530;BMP180;56727;47.188;8.840;2023-02-04T01:01:47;98535.20;;;13.38
69530;BMP180;56727;47.188;8.840;2023-02-04T01:04:14;98536.40;;;13.38
69530;BMP180;56727;47.188;8.840;2023-02-04T01:06:40;98534.20;;;13.36
69530;BMP180;56727;47.188;8.840;2023-02-04T01:09:07;98526.80;;;13.32
69530;BMP180;56727;47.188;8.840;2023-02-04T01:11:34;98530.60;;;13.30
69530;BMP180;56727;47.188;8.840;2023-02-04T01:14:01;98529.00;;;13.26
69530;BMP180;56727;47.188;8.840;2023-02-04T01:16:28;98531.20;;;13.24
69530;BMP180;56727;47.188;8.840;2023-02-04T01:18:54;98528.20;;;13.16
69530;BMP180;56727;47.188;8.840;2023-02-04T01:21:22;98534.00;;;13.20
69530;BMP180;56727;47.188;8.840;2023-02-04T01:23:49;98539.00;;;13.14
69530;BMP180;56727;47.188;8.840;2023-02-04T01:26:19;98548.60;;;13.10
69530;BMP180;56727;47.188;8.840;2023-02-04T01:28:46;98553.00;;;13.08
69530;BMP180;56727;47.188;8.840;2023-02-04T01:34:07;98545.60;;;13.02
69530;BMP180;56727;47.188;8.840;2023-02-04T01:36:34;98539.80;;;12.80
69530;BMP180;56727;47.188;8.840;2023-02-04T01:39:01;98535.20;;;12.72
69530;BMP180;56727;47.188;8.840;2023-02-04T01:41:28;98532.40;;;12.70
69530;BMP180;56727;47.188;8.840;2023-02-04T01:43:55;98534.20;;;12.70
69530;BMP180;56727;47.188;8.840;2023-02-04T01:46:22;98516.40;;;12.72
69530;BMP180;56727;47.188;8.840;2023-02-04T01:48:49;98498.60;;;12.76
69530;BMP180;56727;47.188;8.840;2023-02-04T01:51:23;98510.80;;;12.80
69530;BMP180;56727;47.188;8.840;2023-02-04T01:53:53;98513.80;;;12.86
69530;BMP180;56727;47.188;8.840;2023-02-04T01:56:25;98514.60;;;12.84
69530;BMP180;56727;47.188;8.840;2023-02-04T01:58:55;98518.60;;;12.86
69530;BMP180;56727;47.188;8.840;2023-02-04T02:01:45;98521.60;;;12.84
69530;BMP180;56727;47.188;8.840;2023-02-04T02:04:28;98530.20;;;12.90
69530;BMP180;56727;47.188;8.840;2023-02-04T02:06:59;98526.80;;;12.90
69530;BMP180;56727;47.188;8.840;2023-02-04T02:09:29;98522.20;;;12.84
69530;BMP180;56727;47.188;8.840;2023-02-04T02:11:56;98514.20;;;12.80
69530;BMP180;56727;47.188;8.840;2023-02-04T02:14:23;98514.80;;;12.72
69530;BMP180;56727;47.188;8.840;2023-02-04T02:16:50;98502.80;;;12.70
69530;BMP180;56727;47.188;8.840;2023-02-04T02:19:28;98518.40;;;12.64
69530;BMP180;56727;47.188;8.840;2023-02-04T02:22:04;98512.40;;;12.64
69530;BMP180;56727;47.188;8.840;2023-02-04T02:24:34;98513.60;;;12.62
69530;BMP180;56727;47.188;8.840;2023-02-04T02:27:05;98512.20;;;12.60
69530;BMP180;56727;47.188;8.840;2023-02-04T02:29:35;98510.00;;;12.54
69530;BMP180;56727;47.188;8.840;2023-02-04T02:32:04;98507.20;;;12.58
69530;BMP180;56727;47.188;8.840;2023-02-04T02:34:31;98494.00;;;12.60
69530;BMP180;56727;47.188;8.840;2023-02-04T02:37:00;98497.80;;;12.60
69530;BMP180;56727;47.188;8.840;2023-02-04T02:39:28;98494.80;;;12.62
69530;BMP180;56727;47.188;8.840;2023-02-04T02:41:56;98486.40;;;12.62
69530;BMP180;56727;47.188;8.840;2023-02-04T02:44:25;98497.00;;;12.68
69530;BMP180;56727;47.188;8.840;2023-02-04T02:46:52;98500.20;;;12.70
69530;BMP180;56727;47.188;8.840;2023-02-04T02:49:20;98500.80;;;12.70
69530;BMP180;56727;47.188;8.840;2023-02-04T02:51:48;98490.00;;;12.68
69530;BMP180;56727;47.188;8.840;2023-02-04T02:54:25;98483.80;;;12.70
69530;BMP180;56727;47.188;8.840;2023-02-04T02:56:53;98484.60;;;12.72
69530;BMP180;56727;47.188;8.840;2023-02-04T02:59:20;98482.40;;;12.70
69530;BMP180;56727;47.188;8.840;2023-02-04T03:01:53;98483.00;;;12.70
69530;BMP180;56727;47.188;8.840;2023-02-04T03:04:21;98477.40;;;12.70
69530;BMP180;56727;47.188;8.840;2023-02-04T03:06:49;98480.20;;;12.70
69530;BMP180;56727;47.188;8.840;2023-02-04T03:09:17;98478.80;;;12.70
69530;BMP180;56727;47.188;8.840;2023-02-04T03:11:44;98477.20;;;12.70
69530;BMP180;56727;47.188;8.840;2023-02-04T03:14:11;98484.00;;;12.70
69530;BMP180;56727;47.188;8.840;2023-02-04T03:16:37;98487.80;;;12.66
69530;BMP180;56727;47.188;8.840;2023-02-04T03:19:07;98492.20;;;12.70
69530;BMP180;56727;47.188;8.840;2023-02-04T03:21:34;98490.40;;;12.62
69530;BMP180;56727;47.188;8.840;2023-02-04T03:24:01;98479.60;;;12.64
69530;BMP180;56727;47.188;8.840;2023-02-04T03:26:28;98493.60;;;12.70
69530;BMP180;56727;47.188;8.840;2023-02-04T03:28:55;98502.60;;;12.72
69530;BMP180;56727;47.188;8.840;2023-02-04T03:31:22;98493.00;;;12.78
69530;BMP180;56727;47.188;8.840;2023-02-04T03:33:48;98502.00;;;12.76
69530;BMP180;56727;47.188;8.840;2023-02-04T03:36:15;98502.00;;;12.88
69530;BMP180;56727;47.188;8.840;2023-02-04T03:38:41;98497.40;;;12.90
69530;BMP180;56727;47.188;8.840;2023-02-04T03:41:08;98501.60;;;12.90
69530;BMP180;56727;47.188;8.840;2023-02-04T03:43:34;98491.80;;;12.90
69530;BMP180;56727;47.188;8.840;2023-02-04T03:46:01;98472.40;;;12.90
69530;BMP180;56727;47.188;8.840;2023-02-04T03:48:27;98475.00;;;12.86
69530;BMP180;56727;47.188;8.840;2023-02-04T03:50:54;98483.60;;;12.82
69530;BMP180;56727;47.188;8.840;2023-02-04T03:53:20;98485.20;;;12.80
69530;BMP180;56727;47.188;8.840;2023-02-04T03:55:47;98483.80;;;12.80
69530;BMP180;56727;47.188;8.840;2023-02-04T03:58:14;98482.00;;;12.76
69530;BMP180;56727;47.188;8.840;2023-02-04T04:00:40;98478.20;;;12.80
69530;BMP180;56727;47.188;8.840;2023-02-04T04:03:07;98475.80;;;12.80
69530;BMP180;56727;47.188;8.840;2023-02-04T04:05:33;98476.80;;;12.78
69530;BMP180;56727;47.188;8.840;2023-02-04T04:08:00;98479.40;;;12.74
69530;BMP180;56727;47.188;8.840;2023-02-04T04:10:27;98477.60;;;12.72
69530;BMP180;56727;47.188;8.840;2023-02-04T04:12:55;98477.20;;;12.74
69530;BMP180;56727;47.188;8.840;2023-02-04T04:15:22;98475.40;;;12.70
69530;BMP180;56727;47.188;8.840;2023-02-04T04:17:49;98476.20;;;12.70
69530;BMP180;56727;47.188;8.840;2023-02-04T04:20:16;98484.80;;;12.72
69530;BMP180;56727;47.188;8.840;2023-02-04T04:22:43;98487.40;;;12.80
69530;BMP180;56727;47.188;8.840;2023-02-04T04:25:11;98495.40;;;12.88
69530;BMP180;56727;47.188;8.840;2023-02-04T04:27:37;98497.40;;;12.90
69530;BMP180;56727;47.188;8.840;2023-02-04T04:30:04;98499.00;;;12.92
69530;BMP180;56727;47.188;8.840;2023-02-04T04:32:31;98500.60;;;12.96
69530;BMP180;56727;47.188;8.840;2023-02-04T04:34:58;98495.40;;;12.96
69530;BMP180;56727;47.188;8.840;2023-02-04T04:37:24;98492.80;;;12.94
69530;BMP180;56727;47.188;8.840;2023-02-04T04:39:51;98491.00;;;12.94
69530;BMP180;56727;47.188;8.840;2023-02-04T04:42:17;98493.00;;;12.90
69530;BMP180;56727;47.188;8.840;2023-02-04T04:44:44;98488.60;;;12.90
69530;BMP180;56727;47.188;8.840;2023-02-04T04:47:10;98485.00;;;12.90
69530;BMP180;56727;47.188;8.840;2023-02-04T04:49:37;98478.20;;;12.86
69530;BMP180;56727;47.188;8.840;2023-02-04T04:52:04;98478.60;;;12.86
69530;BMP180;56727;47.188;8.840;2023-02-04T04:54:30;98479.00;;;12.84
69530;BMP180;56727;47.188;8.840;2023-02-04T04:56:57;98476.60;;;12.80
69530;BMP180;56727;47.188;8.840;2023-02-04T04:59:23;98477.80;;;12.82
69530;BMP180;56727;47.188;8.840;2023-02-04T05:01:50;98477.00;;;12.82
69530;BMP180;56727;47.188;8.840;2023-02-04T05:04:17;98470.00;;;12.80
69530;BMP180;56727;47.188;8.840;2023-02-04T05:06:43;98476.60;;;12.80
69530;BMP180;56727;47.188;8.840;2023-02-04T05:09:10;98479.80;;;12.80
69530;BMP180;56727;47.188;8.840;2023-02-04T05:11:36;98476.40;;;12.74
69530;BMP180;56727;47.188;8.840;2023-02-04T05:14:03;98480.20;;;12.78
69530;BMP180;56727;47.188;8.840;2023-02-04T05:16:30;98480.80;;;12.80
69530;BMP180;56727;47.188;8.840;2023-02-04T05:18:57;98473.60;;;12.88
69530;BMP180;56727;47.188;8.840;2023-02-04T05:21:23;98486.80;;;12.90
69530;BMP180;56727;47.188;8.840;2023-02-04T05:23:50;98487.40;;;12.94
69530;BMP180;56727;47.188;8.840;2023-02-04T05:26:16;98485.60;;;13.00
69530;BMP180;56727;47.188;8.840;2023-02-04T05:28:43;98488.40;;;13.02
69530;BMP180;56727;47.188;8.840;2023-02-04T05:31:09;98498.60;;;13.00
69530;BMP180;56727;47.188;8.840;2023-02-04T05:33:36;98499.60;;;13.00
69530;BMP180;56727;47.188;8.840;2023-02-04T05:36:02;98496.80;;;12.98
69530;BMP180;56727;47.188;8.840;2023-02-04T05:38:29;98493.40;;;12.92
69530;BMP180;56727;47.188;8.840;2023-02-04T05:40:55;98482.80;;;12.94
69530;BMP180;56727;47.188;8.840;2023-02-04T05:43:22;98494.60;;;12.90
69530;BMP180;56727;47.188;8.840;2023-02-04T05:45:49;98489.40;;;12.90
69530;BMP180;56727;47.188;8.840;2023-02-04T05:48:15;98501.00;;;12.90
69530;BMP180;56727;47.188;8.840;2023-02-04T05:50:42;98503.00;;;12.90
69530;BMP180;56727;47.188;8.840;2023-02-04T05:53:09;98494.40;;;12.90
69530;BMP180;56727;47.188;8.840;2023-02-04T05:55:35;98495.40;;;12.90
69530;BMP180;56727;47.188;8.840;2023-02-04T05:58:02;98490.40;;;12.86
69530;BMP180;56727;47.188;8.840;2023-02-04T06:00:28;98486.20;;;12.84
69530;BMP180;56727;47.188;8.840;2023-02-04T06:02:55;98489.40;;;12.80
69530;BMP180;56727;47.188;8.840;2023-02-04T06:05:22;98483.20;;;12.78
69530;BMP180;56727;47.188;8.840;2023-02-04T06:07:49;98489.40;;;12.84
69530;BMP180;56727;47.188;8.840;2023-02-04T06:10:16;98489.80;;;12.86
69530;BMP180;56727;47.188;8.840;2023-02-04T06:12:42;98490.20;;;12.92
69530;BMP180;56727;47.188;8.840;2023-02-04T06:15:09;98483.80;;;12.96
69530;BMP180;56727;47.188;8.840;2023-02-04T06:17:37;98478.80;;;13.02
69530;BMP180;56727;47.188;8.840;2023-02-04T06:20:06;98478.40;;;13.04
69530;BMP180;56727;47.188;8.840;2023-02-04T06:22:32;98487.20;;;13.04
69530;BMP180;56727;47.188;8.840;2023-02-04T06:24:59;98487.20;;;13.16
69530;BMP180;56727;47.188;8.840;2023-02-04T06:27:25;98482.40;;;13.22
69530;BMP180;56727;47.188;8.840;2023-02-04T06:29:52;98482.80;;;13.28
69530;BMP180;56727;47.188;8.840;2023-02-04T06:32:20;98482.20;;;13.30
69530;BMP180;56727;47.188;8.840;2023-02-04T06:34:48;98480.40;;;13.26
69530;BMP180;56727;47.188;8.840;2023-02-04T06:37:15;98475.00;;;13.28
69530;BMP180;56727;47.188;8.840;2023-02-04T06:39:42;98488.20;;;13.26
69530;BMP180;56727;47.188;8.840;2023-02-04T06:42:09;98496.00;;;13.26
69530;BMP180;56727;47.188;8.840;2023-02-04T06:44:35;98491.80;;;13.22
69530;BMP180;56727;47.188;8.840;2023-02-04T06:47:02;98494.00;;;13.22
69530;BMP180;56727;47.188;8.840;2023-02-04T06:49:29;98491.20;;;13.22
69530;BMP180;56727;47.188;8.840;2023-02-04T06:51:55;98492.80;;;13.20
69530;BMP180;56727;47.188;8.840;2023-02-04T06:54:22;98489.00;;;13.14
69530;BMP180;56727;47.188;8.840;2023-02-04T06:56:49;98495.20;;;13.16
69530;BMP180;56727;47.188;8.840;2023-02-04T06:59:17;98494.80;;;13.20
69530;BMP180;56727;47.188;8.840;2023-02-04T07:01:43;98500.00;;;13.24
69530;BMP180;56727;47.188;8.840;2023-02-04T07:04:10;98491.40;;;13.30
69530;BMP180;56727;47.188;8.840;2023-02-04T07:06:36;98506.60;;;13.30
69530;BMP180;56727;47.188;8.840;2023-02-04T07:09:03;98503.60;;;13.38
69530;BMP180;56727;47.188;8.840;2023-02-04T07:11:30;98504.00;;;13.40
69530;BMP180;56727;47.188;8.840;2023-02-04T07:13:58;98504.60;;;13.30
69530;BMP180;56727;47.188;8.840;2023-02-04T07:16:24;98504.60;;;13.20
69530;BMP180;56727;47.188;8.840;2023-02-04T07:18:51;98501.60;;;13.18
69530;BMP180;56727;47.188;8.840;2023-02-04T07:21:18;98506.80;;;13.12
69530;BMP180;56727;47.188;8.840;2023-02-04T07:23:45;98511.80;;;13.10
69530;BMP180;56727;47.188;8.840;2023-02-04T07:26:13;98509.40;;;13.10
69530;BMP180;56727;47.188;8.840;2023-02-04T07:28:39;98505.80;;;13.20
69530;BMP180;56727;47.188;8.840;2023-02-04T07:31:06;98506.00;;;13.28
69530;BMP180;56727;47.188;8.840;2023-02-04T07:33:33;98515.20;;;13.30
69530;BMP180;56727;47.188;8.840;2023-02-04T07:35:59;98507.40;;;13.26
69530;BMP180;56727;47.188;8.840;2023-02-04T07:38:26;98516.00;;;13.30
69530;BMP180;56727;47.188;8.840;2023-02-04T07:40:53;98521.00;;;13.30
69530;BMP180;56727;47.188;8.840;2023-02-04T07:43:19;98533.20;;;13.24
69530;BMP180;56727;47.188;8.840;2023-02-04T07:45:46;98539.80;;;13.30
69530;BMP180;56727;47.188;8.840;2023-02-04T07:48:12;98539.20;;;13.32
69530;BMP180;56727;47.188;8.840;2023-02-04T07:50:39;98535.00;;;13.38
69530;BMP180;56727;47.188;8.840;2023-02-04T07:53:05;98534.00;;;13.40
69530;BMP180;56727;47.188;8.840;2023-02-04T07:55:32;98533.40;;;13.46
69530;BMP180;56727;47.188;8.840;2023-02-04T07:57:58;98528.00;;;13.52
69530;BMP180;56727;47.188;8.840;2023-02-04T08:00:25;98518.80;;;13.56
69530;BMP180;56727;47.188;8.840;2023-02-04T08:02:51;98513.60;;;13.60
69530;BMP180;56727;47.188;8.840;2023-02-04T08:05:18;98495.40;;;13.60
69530;BMP180;56727;47.188;8.840;2023-02-04T08:07:44;98512.20;;;13.60
69530;BMP180;56727;47.188;8.840;2023-02-04T08:10:13;98519.60;;;13.60
69530;BMP180;56727;47.188;8.840;2023-02-04T08:12:39;98519.40;;;13.60
69530;BMP180;56727;47.188;8.840;2023-02-04T08:15:06;98525.20;;;13.60
69530;BMP180;56727;47.188;8.840;2023-02-04T08:17:34;98528.20;;;13.60
69530;BMP180;56727;47.188;8.840;2023-02-04T08:20:01;98529.60;;;13.54
69530;BMP180;56727;47.188;8.840;2023-02-04T08:22:28;98534.80;;;13.54
69530;BMP180;56727;47.188;8.840;2023-02-04T08:24:54;98536.40;;;13.54
69530;BMP180;56727;47.188;8.840;2023-02-04T08:27:21;98537.60;;;13.50
69530;BMP180;56727;47.188;8.840;2023-02-04T08:29:47;98540.20;;;13.46
69530;BMP180;56727;47.188;8.840;2023-02-04T08:32:14;98541.20;;;13.50
69530;BMP180;56727;47.188;8.840;2023-02-04T08:34:41;98534.00;;;13.50
69530;BMP180;56727;47.188;8.840;2023-02-04T08:37:09;98548.40;;;13.50
69530;BMP180;56727;47.188;8.840;2023-02-04T08:39:35;98552.40;;;13.52
69530;BMP180;56727;47.188;8.840;2023-02-04T08:42:03;98554.00;;;13.56
69530;BMP180;56727;47.188;8.840;2023-02-04T08:44:30;98553.20;;;13.58
69530;BMP180;56727;47.188;8.840;2023-02-04T08:46:56;98558.40;;;13.60
69530;BMP180;56727;47.188;8.840;2023-02-04T08:49:23;98550.80;;;13.64
69530;BMP180;56727;47.188;8.840;2023-02-04T08:51:49;98546.00;;;13.68
69530;BMP180;56727;47.188;8.840;2023-02-04T08:54:16;98550.40;;;13.68
69530;BMP180;56727;47.188;8.840;2023-02-04T08:56:43;98548.60;;;13.68
69530;BMP180;56727;47.188;8.840;2023-02-04T08:59:09;98536.40;;;13.70
69530;BMP180;56727;47.188;8.840;2023-02-04T09:01:36;98547.00;;;13.70
69530;BMP180;56727;47.188;8.840;2023-02-04T09:04:02;98544.20;;;13.70
69530;BMP180;56727;47.188;8.840;2023-02-04T09:06:30;98546.20;;;13.70
69530;BMP180;56727;47.188;8.840;2023-02-04T09:08:57;98546.80;;;13.66
69530;BMP180;56727;47.188;8.840;2023-02-04T09:11:23;98544.20;;;13.68
69530;BMP180;56727;47.188;8.840;2023-02-04T09:13:50;98549.60;;;13.70
69530;BMP180;56727;47.188;8.840;2023-02-04T09:16:17;98537.80;;;13.70
69530;BMP180;56727;47.188;8.840;2023-02-04T09:18:43;98540.20;;;13.70
69530;BMP180;56727;47.188;8.840;2023-02-04T09:21:10;98554.80;;;13.66
69530;BMP180;56727;47.188;8.840;2023-02-04T09:23:36;98550.00;;;13.68
69530;BMP180;56727;47.188;8.840;2023-02-04T09:26:03;98557.20;;;13.70
69530;BMP180;56727;47.188;8.840;2023-02-04T09:28:31;98557.00;;;13.80
69530;BMP180;56727;47.188;8.840;2023-02-04T09:30:58;98552.00;;;13.80
69530;BMP180;56727;47.188;8.840;2023-02-04T09:33:25;98565.00;;;13.84
69530;BMP180;56727;47.188;8.840;2023-02-04T09:35:52;98564.80;;;13.86
69530;BMP180;56727;47.188;8.840;2023-02-04T09:38:18;98571.00;;;13.86
69530;BMP180;56727;47.188;8.840;2023-02-04T09:40:51;98579.20;;;13.86
69530;BMP180;56727;47.188;8.840;2023-02-04T09:43:26;98584.00;;;13.88
69530;BMP180;56727;47.188;8.840;2023-02-04T09:45:54;98578.40;;;13.88
69530;BMP180;56727;47.188;8.840;2023-02-04T09:48:22;98579.20;;;13.82
69530;BMP180;56727;47.188;8.840;2023-02-04T09:50:51;98579.40;;;13.82
69530;BMP180;56727;47.188;8.840;2023-02-04T09:53:22;98584.80;;;13.80
69530;BMP180;56727;47.188;8.840;2023-02-04T09:55:51;98587.40;;;13.82
69530;BMP180;56727;47.188;8.840;2023-02-04T09:58:21;98583.80;;;13.88
69530;BMP180;56727;47.188;8.840;2023-02-04T10:00:58;98585.60;;;13.94
69530;BMP180;56727;47.188;8.840;2023-02-04T10:03:26;98579.20;;;14.02
69530;BMP180;56727;47.188;8.840;2023-02-04T10:05:53;98581.80;;;14.06
69530;BMP180;56727;47.188;8.840;2023-02-04T10:08:28;98585.20;;;14.12
69530;BMP180;56727;47.188;8.840;2023-02-04T10:10:56;98577.40;;;14.20
69530;BMP180;56727;47.188;8.840;2023-02-04T10:13:36;98583.40;;;14.14
69530;BMP180;56727;47.188;8.840;2023-02-04T10:16:33;98573.80;;;14.04
69530;BMP180;56727;47.188;8.840;2023-02-04T10:19:03;98580.60;;;14.08
69530;BMP180;56727;47.188;8.840;2023-02-04T10:21:35;98585.20;;;14.00
69530;BMP180;56727;47.188;8.840;2023-02-04T10:24:18;98591.20;;;13.98
69530;BMP180;56727;47.188;8.840;2023-02-04T10:26:46;98582.20;;;13.94
69530;BMP180;56727;47.188;8.840;2023-02-04T10:29:19;98560.20;;;13.92
69530;BMP180;56727;47.188;8.840;2023-02-04T10:31:49;98580.80;;;13.94
69530;BMP180;56727;47.188;8.840;2023-02-04T10:34:23;98578.00;;;13.94
69530;BMP180;56727;47.188;8.840;2023-02-04T10:36:53;98581.40;;;13.96
69530;BMP180;56727;47.188;8.840;2023-02-04T10:39:24;98583.40;;;13.98
69530;BMP180;56727;47.188;8.840;2023-02-04T10:41:55;98584.20;;;13.92
69530;BMP180;56727;47.188;8.840;2023-02-04T10:44:31;98577.80;;;13.98
69530;BMP180;56727;47.188;8.840;2023-02-04T10:47:04;98582.20;;;14.00
69530;BMP180;56727;47.188;8.840;2023-02-04T10:49:32;98584.40;;;14.08
69530;BMP180;56727;47.188;8.840;2023-02-04T10:52:01;98588.40;;;14.02
69530;BMP180;56727;47.188;8.840;2023-02-04T10:54:36;98588.60;;;13.96
69530;BMP180;56727;47.188;8.840;2023-02-04T10:57:26;98589.60;;;13.90
69530;BMP180;56727;47.188;8.840;2023-02-04T10:59:57;98591.80;;;13.92
69530;BMP180;56727;47.188;8.840;2023-02-04T11:02:48;98592.40;;;13.84
69530;BMP180;56727;47.188;8.840;2023-02-04T11:05:21;98590.60;;;13.98
69530;BMP180;56727;47.188;8.840;2023-02-04T11:07:50;98586.00;;;14.00
69530;BMP180;56727;47.188;8.840;2023-02-04T11:10:24;98584.80;;;13.96
69530;BMP180;56727;47.188;8.840;2023-02-04T11:13:05;98579.00;;;14.00
69530;BMP180;56727;47.188;8.840;2023-02-04T11:15:43;98575.80;;;14.10
69530;BMP180;56727;47.188;8.840;2023-02-04T11:18:25;98571.60;;;14.20
69530;BMP180;56727;47.188;8.840;2023-02-04T11:20:56;98575.00;;;14.30
69530;BMP180;56727;47.188;8.840;2023-02-04T11:23:33;98572.60;;;14.32
69530;BMP180;56727;47.188;8.840;2023-02-04T11:26:19;98571.40;;;14.46
69530;BMP180;56727;47.188;8.840;2023-02-04T11:29:38;98562.00;;;14.60
69530;BMP180;56727;47.188;8.840;2023-02-04T11:32:26;98565.60;;;14.70
69530;BMP180;56727;47.188;8.840;2023-02-04T11:34:53;98565.20;;;14.70
69530;BMP180;56727;47.188;8.840;2023-02-04T11:37:41;98574.80;;;14.64
69530;BMP180;56727;47.188;8.840;2023-02-04T11:40:55;98572.00;;;14.66
69530;BMP180;56727;47.188;8.840;2023-02-04T11:43:22;98575.60;;;14.70
69530;BMP180;56727;47.188;8.840;2023-02-04T11:46:04;98578.80;;;14.62
69530;BMP180;56727;47.188;8.840;2023-02-04T11:48:35;98576.00;;;14.66
69530;BMP180;56727;47.188;8.840;2023-02-04T11:51:11;98570.40;;;14.60
69530;BMP180;56727;47.188;8.840;2023-02-04T11:53:38;98572.00;;;14.60
69530;BMP180;56727;47.188;8.840;2023-02-04T11:56:04;98567.80;;;14.60
69530;BMP180;56727;47.188;8.840;2023-02-04T11:58:32;98577.00;;;14.52
69530;BMP180;56727;47.188;8.840;2023-02-04T12:00:58;98572.20;;;14.56
69530;BMP180;56727;47.188;8.840;2023-02-04T12:03:46;98563.20;;;14.60
69530;BMP180;56727;47.188;8.840;2023-02-04T12:06:26;98568.00;;;14.72
69530;BMP180;56727;47.188;8.840;2023-02-04T12:12:04;98569.40;;;14.90
69530;BMP180;56727;47.188;8.840;2023-02-04T12:14:37;98569.20;;;14.86
69530;BMP180;56727;47.188;8.840;2023-02-04T12:17:19;98570.40;;;14.90
69530;BMP180;56727;47.188;8.840;2023-02-04T12:19:45;98567.00;;;14.88
69530;BMP180;56727;47.188;8.840;2023-02-04T12:22:12;98572.20;;;14.86
69530;BMP180;56727;47.188;8.840;2023-02-04T12:24:40;98570.40;;;14.86
69530;BMP180;56727;47.188;8.840;2023-02-04T12:27:08;98571.20;;;14.82
69530;BMP180;56727;47.188;8.840;2023-02-04T12:29:34;98569.20;;;14.80
69530;BMP180;56727;47.188;8.840;2023-02-04T12:32:00;98570.20;;;14.80
69530;BMP180;56727;47.188;8.840;2023-02-04T12:34:27;98572.20;;;14.76
69530;BMP180;56727;47.188;8.840;2023-02-04T12:36:54;98572.20;;;14.76
69530;BMP180;56727;47.188;8.840;2023-02-04T12:39:20;98571.40;;;14.76
69530;BMP180;56727;47.188;8.840;2023-02-04T12:41:47;98575.40;;;14.70
69530;BMP180;56727;47.188;8.840;2023-02-04T12:44:13;98574.20;;;14.70
69530;BMP180;56727;47.188;8.840;2023-02-04T12:46:40;98576.80;;;14.72
69530;BMP180;56727;47.188;8.840;2023-02-04T12:49:07;98580.20;;;14.80
69530;BMP180;56727;47.188;8.840;2023-02-04T12:51:33;98578.40;;;14.84
69530;BMP180;56727;47.188;8.840;2023-02-04T12:54:00;98578.00;;;14.90
69530;BMP180;56727;47.188;8.840;2023-02-04T12:56:26;98578.60;;;14.98
69530;BMP180;56727;47.188;8.840;2023-02-04T12:58:53;98578.00;;;15.00
69530;BMP180;56727;47.188;8.840;2023-02-04T13:01:19;98556.80;;;15.00
69530;BMP180;56727;47.188;8.840;2023-02-04T13:03:45;98582.00;;;15.00
69530;BMP180;56727;47.188;8.840;2023-02-04T13:06:12;98581.20;;;15.00
69530;BMP180;56727;47.188;8.840;2023-02-04T13:08:39;98583.60;;;15.00
69530;BMP180;56727;47.188;8.840;2023-02-04T13:11:05;98584.40;;;15.00
69530;BMP180;56727;47.188;8.840;2023-02-04T13:13:32;98584.40;;;15.00
69530;BMP180;56727;47.188;8.840;2023-02-04T13:15:58;98587.80;;;14.96
69530;BMP180;56727;47.188;8.840;2023-02-04T13:18:25;98585.20;;;14.94
69530;BMP180;56727;47.188;8.840;2023-02-04T13:20:51;98589.80;;;14.90
69530;BMP180;56727;47.188;8.840;2023-02-04T13:23:18;98589.40;;;14.88
69530;BMP180;56727;47.188;8.840;2023-02-04T13:25:44;98596.20;;;14.90
69530;BMP180;56727;47.188;8.840;2023-02-04T13:28:11;98597.00;;;14.94
69530;BMP180;56727;47.188;8.840;2023-02-04T13:30:37;98597.20;;;15.00
69530;BMP180;56727;47.188;8.840;2023-02-04T13:33:04;98597.00;;;15.00
69530;BMP180;56727;47.188;8.840;2023-02-04T13:35:30;98602.40;;;15.10
69530;BMP180;56727;47.188;8.840;2023-02-04T13:37:58;98601.80;;;15.12
69530;BMP180;56727;47.188;8.840;2023-02-04T13:40:25;98604.80;;;15.16
69530;BMP180;56727;47.188;8.840;2023-02-04T13:42:51;98607.40;;;15.16
69530;BMP180;56727;47.188;8.840;2023-02-04T13:45:18;98609.40;;;15.14
69530;BMP180;56727;47.188;8.840;2023-02-04T13:47:44;98606.80;;;15.04
69530;BMP180;56727;47.188;8.840;2023-02-04T13:50:15;98613.20;;;14.90
69530;BMP180;56727;47.188;8.840;2023-02-04T13:52:42;98614.20;;;14.80
69530;BMP180;56727;47.188;8.840;2023-02-04T13:55:08;98614.00;;;14.80
69530;BMP180;56727;47.188;8.840;2023-02-04T13:57:36;98616.20;;;14.74
69530;BMP180;56727;47.188;8.840;2023-02-04T14:00:05;98613.00;;;14.72
69530;BMP180;56727;47.188;8.840;2023-02-04T14:02:32;98614.40;;;14.76
69530;BMP180;56727;47.188;8.840;2023-02-04T14:04:59;98616.00;;;14.78
69530;BMP180;56727;47.188;8.840;2023-02-04T14:07:26;98628.40;;;14.80
69530;BMP180;56727;47.188;8.840;2023-02-04T14:09:53;98623.60;;;14.74
69530;BMP180;56727;47.188;8.840;2023-02-04T14:12:19;98622.00;;;14.76
69530;BMP180;56727;47.188;8.840;2023-02-04T14:14:46;98622.40;;;14.80
69530;BMP180;56727;47.188;8.840;2023-02-04T14:17:13;98624.60;;;14.86
69530;BMP180;56727;47.188;8.840;2023-02-04T14:19:39;98627.80;;;14.90
69530;BMP180;56727;47.188;8.840;2023-02-04T14:22:06;98627.60;;;14.96
69530;BMP180;56727;47.188;8.840;2023-02-04T14:24:33;98630.00;;;15.00